createdAt,value
2022-11-23T00:00:39.998Z,97480.78
2022-11-23T00:03:06.439Z,97483.19
2022-11-23T00:05:34.408Z,97480.69
2022-11-23T00:08:00.700Z,97482.25
2022-11-23T00:10:27.018Z,97481.97
2022-11-23T00:12:53.693Z,97481.31
2022-11-23T00:15:20.250Z,97477.41
2022-11-23T00:17:47.928Z,97486.03
2022-11-23T00:20:14.520Z,97484.75
2022-11-23T00:22:40.978Z,97486.44
2022-11-23T00:25:07.810Z,97487.63
2022-11-23T00:27:34.313Z,97494.69
2022-11-23T00:30:00.906Z,97489.97
2022-11-23T00:32:29.422Z,97489.97
2022-11-23T00:34:56.037Z,97485.69
2022-11-23T00:37:22.371Z,97496.25
2022-11-23T00:39:48.920Z,97496.59
2022-11-23T00:42:15.324Z,97496.94
2022-11-23T00:44:41.752Z,97497.09
2022-11-23T00:47:08.067Z,97495.97
2022-11-23T00:49:34.695Z,97493.34
2022-11-23T00:52:01.081Z,97486.16
2022-11-23T00:54:27.557Z,97502.03
2022-11-23T00:56:53.896Z,97503.34
2022-11-23T00:59:20.422Z,97504.69
2022-11-23T01:01:48.962Z,97507.19
2022-11-23T01:04:15.633Z,97503.44
2022-11-23T01:06:41.984Z,97509.25
2022-11-23T01:09:15.442Z,97505.28
2022-11-23T01:11:41.853Z,97514.53
2022-11-23T01:14:08.243Z,97518.16
2022-11-23T01:16:37.686Z,97513.59
2022-11-23T01:19:06.909Z,97515.56
2022-11-23T01:21:34.757Z,97515.41
2022-11-23T01:24:08.352Z,97511.59
2022-11-23T01:26:34.918Z,97515.34
2022-11-23T01:29:01.420Z,97510.75
2022-11-23T01:31:27.949Z,97515.31
2022-11-23T01:33:56.909Z,97525.03
2022-11-23T01:36:26.943Z,97525.50
2022-11-23T01:38:54.469Z,97524.97
2022-11-23T01:41:24.000Z,97523.69
2022-11-23T01:43:51.077Z,97516.59
2022-11-23T01:46:18.033Z,97517.13
2022-11-23T01:49:06.007Z,97522.75
2022-11-23T01:51:37.402Z,97522.06
2022-11-23T01:54:10.051Z,97525.59
2022-11-23T01:56:44.614Z,97520.03
2022-11-23T01:59:16.246Z,97514.97
2022-11-23T02:01:43.974Z,97520.41
2022-11-23T02:04:14.540Z,97529.09
2022-11-23T02:06:42.941Z,97526.63
2022-11-23T02:09:09.527Z,97528.41
2022-11-23T02:11:36.159Z,97542.78
2022-11-23T02:14:02.565Z,97538.66
2022-11-23T02:16:29.485Z,97544.09
2022-11-23T02:18:55.906Z,97538.19
2022-11-23T02:21:23.429Z,97537.16
2022-11-23T02:24:05.479Z,97541.41
2022-11-23T02:26:36.746Z,97548.75
2022-11-23T02:29:03.102Z,97537.88
2022-11-23T02:31:29.742Z,97530.28
2022-11-23T02:33:56.272Z,97532.75
2022-11-23T02:36:35.114Z,97534.09
2022-11-23T02:39:06.780Z,97522.91
2022-11-23T02:41:38.309Z,97537.22
2022-11-23T02:44:09.058Z,97535.25
2022-11-23T02:46:35.501Z,97538.34
2022-11-23T02:49:02.216Z,97537.75
2022-11-23T02:51:28.628Z,97536.28
2022-11-23T02:53:55.246Z,97535.63
2022-11-23T02:56:21.571Z,97534.19
2022-11-23T02:58:47.915Z,97531.56
2022-11-23T03:01:14.274Z,97541.13
2022-11-23T03:03:40.820Z,97546.09
2022-11-23T03:06:07.256Z,97541.66
2022-11-23T03:08:33.599Z,97542.00
2022-11-23T03:11:01.554Z,97544.97
2022-11-23T03:13:28.290Z,97543.84
2022-11-23T03:15:56.228Z,97548.47
2022-11-23T03:18:23.474Z,97544.19
2022-11-23T03:20:49.901Z,97537.81
2022-11-23T03:23:16.569Z,97538.97
2022-11-23T03:25:43.163Z,97539.31
2022-11-23T03:28:09.572Z,97537.03
2022-11-23T03:30:36.130Z,97915.38
2022-11-23T03:33:02.516Z,97911.94
2022-11-23T03:35:28.862Z,97909.28
2022-11-23T03:37:55.284Z,97901.72
2022-11-23T03:40:21.622Z,97898.63
2022-11-23T03:42:48.078Z,97897.63
2022-11-23T03:45:14.695Z,97897.94
2022-11-23T03:47:41.216Z,97900.91
2022-11-23T03:50:08.165Z,97905.97
2022-11-23T03:52:34.660Z,97898.41
2022-11-23T03:55:01.023Z,97891.19
2022-11-23T03:57:27.543Z,97891.84
2022-11-23T03:59:53.883Z,97885.94
2022-11-23T04:02:20.257Z,97889.25
2022-11-23T04:04:46.579Z,97884.94
2022-11-23T04:07:13.084Z,97885.97
2022-11-23T04:09:39.752Z,97890.91
2022-11-23T04:12:06.554Z,97879.38
2022-11-23T04:14:33.011Z,97879.06
2022-11-23T04:16:59.522Z,97880.38
2022-11-23T04:19:26.123Z,97885.97
2022-11-23T04:21:52.445Z,97875.28
2022-11-23T04:24:18.750Z,97882.84
2022-11-23T04:26:45.202Z,97885.16
2022-11-23T04:29:11.617Z,97886.47
2022-11-23T04:31:37.990Z,97886.97
2022-11-23T04:34:04.435Z,97878.44
2022-11-23T04:36:30.879Z,97876.44
2022-11-23T04:38:57.347Z,97877.78
2022-11-23T04:41:24.018Z,97878.09
2022-11-23T04:43:50.736Z,97867.75
2022-11-23T04:46:18.130Z,97863.97
2022-11-23T04:48:44.682Z,97870.34
2022-11-23T04:51:11.050Z,97862.66
2022-11-23T04:53:37.593Z,97875.78
2022-11-23T04:56:04.064Z,97873.97
2022-11-23T04:58:34.573Z,97869.91
2022-11-23T05:01:01.322Z,97860.19
2022-11-23T05:03:27.809Z,97855.06
2022-11-23T05:05:54.348Z,97852.44
2022-11-23T05:08:21.854Z,97851.47
2022-11-23T05:10:48.260Z,97852.09
2022-11-23T05:13:14.788Z,97853.09
2022-11-23T05:15:41.208Z,97855.72
2022-11-23T05:18:07.872Z,97860.31
2022-11-23T05:20:34.722Z,97865.59
2022-11-23T05:23:01.102Z,97866.75
2022-11-23T05:25:27.926Z,97869.53
2022-11-23T05:27:54.303Z,97862.78
2022-11-23T05:30:21.362Z,97859.50
2022-11-23T05:32:47.810Z,97847.66
2022-11-23T05:35:14.511Z,97852.91
2022-11-23T05:37:41.922Z,97849.47
2022-11-23T05:40:09.408Z,97848.50
2022-11-23T05:42:35.810Z,97851.28
2022-11-23T05:45:04.494Z,97845.66
2022-11-23T05:47:32.991Z,97842.41
2022-11-23T05:49:59.409Z,97847.50
2022-11-23T05:52:26.473Z,97846.03
2022-11-23T05:54:53.091Z,97839.28
2022-11-23T05:57:19.626Z,97853.25
2022-11-23T05:59:45.970Z,97857.22
2022-11-23T06:02:12.375Z,97853.09
2022-11-23T06:04:38.998Z,97853.25
2022-11-23T06:07:05.456Z,97847.66
2022-11-23T06:09:32.445Z,97851.94
2022-11-23T06:11:59.580Z,97856.53
2022-11-23T06:14:26.143Z,97848.78
2022-11-23T06:16:52.521Z,97862.28
2022-11-23T06:19:19.202Z,97858.34
2022-11-23T06:21:50.213Z,97849.13
2022-11-23T06:24:16.909Z,97850.41
2022-11-23T06:26:43.455Z,97849.91
2022-11-23T06:29:09.873Z,97857.63
2022-11-23T06:31:36.279Z,97813.09
2022-11-23T06:34:02.629Z,97759.13
2022-11-23T06:36:29.188Z,97760.81
2022-11-23T06:38:55.605Z,97720.66
2022-11-23T06:41:22.079Z,97717.22
2022-11-23T06:43:48.457Z,97712.13
2022-11-23T06:46:16.269Z,97713.59
2022-11-23T06:48:47.116Z,97721.50
2022-11-23T06:51:14.476Z,97716.22
2022-11-23T06:53:41.087Z,97718.34
2022-11-23T06:56:07.904Z,97722.66
2022-11-23T06:58:34.802Z,97724.28
2022-11-23T07:01:02.806Z,97716.88
2022-11-23T07:03:29.686Z,97723.94
2022-11-23T07:05:56.706Z,97723.31
2022-11-23T07:08:23.897Z,97728.88
2022-11-23T07:10:50.353Z,97726.56
2022-11-23T07:13:17.908Z,97731.84
2022-11-23T07:15:44.588Z,97741.34
2022-11-23T07:18:12.331Z,97735.44
2022-11-23T07:20:38.820Z,97737.91
2022-11-23T07:23:08.050Z,97737.59
2022-11-23T07:25:35.867Z,97737.09
2022-11-23T07:28:03.884Z,97735.81
2022-11-23T07:30:32.183Z,97739.75
2022-11-23T07:33:06.854Z,97737.63
2022-11-23T07:35:33.315Z,97746.16
2022-11-23T07:38:01.501Z,97754.38
2022-11-23T07:40:29.526Z,97762.75
2022-11-23T07:43:00.352Z,97779.56
2022-11-23T07:45:29.632Z,97795.00
2022-11-23T07:48:05.459Z,97820.84
2022-11-23T07:50:32.709Z,97843.22
2022-11-23T07:52:59.443Z,97872.69
2022-11-23T07:55:26.049Z,97895.91
2022-11-23T07:57:54.204Z,97924.69
2022-11-23T08:00:25.051Z,97930.47
2022-11-23T08:03:25.506Z,97932.41
2022-11-23T08:05:38.204Z,97946.91
2022-11-23T08:08:04.741Z,97955.75
2022-11-23T08:10:33.246Z,97965.50
2022-11-23T08:13:01.468Z,97975.69
2022-11-23T08:15:27.886Z,97966.63
2022-11-23T08:17:58.428Z,97940.06
2022-11-23T08:20:26.259Z,97940.66
2022-11-23T08:22:53.061Z,97926.91
2022-11-23T08:25:19.617Z,97910.53
2022-11-23T08:27:46.106Z,97899.03
2022-11-23T08:30:13.162Z,97891.72
2022-11-23T08:32:39.561Z,97893.41
2022-11-23T08:35:06.710Z,97924.38
2022-11-23T08:37:33.292Z,97888.97
2022-11-23T08:39:59.643Z,97876.59
2022-11-23T08:42:26.326Z,97860.13
2022-11-23T08:44:52.775Z,97846.50
2022-11-23T08:47:19.153Z,97832.44
2022-11-23T08:49:45.523Z,97802.59
2022-11-23T08:52:11.946Z,97790.75
2022-11-23T08:54:38.469Z,97787.88
2022-11-23T08:57:04.832Z,97759.13
2022-11-23T08:59:31.255Z,97756.25
2022-11-23T09:01:57.790Z,97730.84
2022-11-23T09:04:24.287Z,97713.13
2022-11-23T09:06:50.627Z,97711.91
2022-11-23T09:09:17.006Z,97682.13
2022-11-23T09:11:43.449Z,97663.28
2022-11-23T09:14:09.925Z,97682.28
2022-11-23T09:16:36.527Z,97663.13
2022-11-23T09:19:03.014Z,97639.97
2022-11-23T09:21:29.374Z,97634.09
2022-11-23T09:23:55.892Z,97619.69
2022-11-23T09:26:22.677Z,97601.78
2022-11-23T09:28:49.107Z,97587.31
2022-11-23T09:31:15.555Z,97577.97
2022-11-23T09:33:41.999Z,97577.97
2022-11-23T09:36:08.660Z,97569.38
2022-11-23T09:41:58.366Z,97543.03
2022-11-23T09:44:40.704Z,97501.78
2022-11-23T09:47:25.268Z,97497.72
2022-11-23T09:50:11.638Z,97494.19
2022-11-23T09:52:42.531Z,97487.69
2022-11-23T09:55:18.143Z,97484.59
2022-11-23T09:57:47.652Z,97486.56
2022-11-23T10:00:22.607Z,97482.00
2022-11-23T10:02:49.187Z,97475.94
2022-11-23T10:05:24.864Z,97483.69
2022-11-23T10:08:14.649Z,97481.25
2022-11-23T10:10:48.500Z,97476.69
2022-11-23T10:13:40.018Z,97479.00
2022-11-23T10:16:25.981Z,97482.16
2022-11-23T10:19:30.484Z,97471.69
2022-11-23T10:22:11.071Z,97469.19
2022-11-23T10:24:46.179Z,97467.09
2022-11-23T10:27:16.871Z,97461.41
2022-11-23T10:29:43.717Z,97455.75
2022-11-23T10:32:27.543Z,97457.75
2022-11-23T10:35:11.461Z,97460.31
2022-11-23T10:37:42.193Z,97455.88
2022-11-23T10:40:28.468Z,97455.91
2022-11-23T10:43:01.698Z,97455.56
2022-11-23T10:45:29.576Z,97457.56
2022-11-23T10:47:58.560Z,97458.25
2022-11-23T10:50:34.694Z,97456.59
2022-11-23T10:53:19.081Z,97445.97
2022-11-23T10:55:51.470Z,97450.59
2022-11-23T10:58:32.352Z,97446.19
2022-11-23T11:01:07.213Z,97447.19
2022-11-23T11:03:35.249Z,97438.88
2022-11-23T11:06:10.844Z,97440.72
2022-11-23T11:09:03.536Z,97449.03
2022-11-23T11:11:39.660Z,97453.84
2022-11-23T11:14:13.530Z,97439.34
2022-11-23T11:16:51.339Z,97436.47
2022-11-23T11:19:30.097Z,97437.88
2022-11-23T11:21:58.300Z,97440.88
2022-11-23T11:24:36.174Z,97434.81
2022-11-23T11:27:06.564Z,97426.66
2022-11-23T11:29:40.023Z,97431.69
2022-11-23T11:32:11.866Z,97424.50
2022-11-23T11:35:02.955Z,97426.78
2022-11-23T11:37:38.900Z,97429.72
2022-11-23T11:40:23.754Z,97422.53
2022-11-23T11:43:05.106Z,97420.50
2022-11-23T11:45:33.552Z,97420.22
2022-11-23T11:48:20.571Z,97415.66
2022-11-23T11:50:57.281Z,97408.47
2022-11-23T11:53:31.301Z,97404.31
2022-11-23T11:56:07.232Z,97411.59
2022-11-23T11:58:40.280Z,97408.41
2022-11-23T12:01:20.790Z,97411.81
2022-11-23T12:04:04.424Z,97397.16
2022-11-23T12:06:42.247Z,97392.31
2022-11-23T12:09:30.897Z,97399.63
2022-11-23T12:11:58.330Z,97390.53
2022-11-23T12:14:24.872Z,97388.16
2022-11-23T12:17:31.520Z,97389.44
2022-11-23T12:20:16.234Z,97379.00
2022-11-23T12:22:59.497Z,97374.53
2022-11-23T12:25:38.694Z,97380.19
2022-11-23T12:28:29.802Z,97382.03
2022-11-23T12:31:30.908Z,97374.88
2022-11-23T12:34:15.674Z,97375.59
2022-11-23T12:37:09.630Z,97374.19
2022-11-23T12:39:50.906Z,97378.66
2022-11-23T12:42:29.607Z,97378.81
2022-11-23T12:45:22.768Z,97383.88
2022-11-23T12:48:21.509Z,97384.44
2022-11-23T12:50:58.270Z,97388.66
2022-11-23T12:53:54.292Z,97374.59
2022-11-23T12:56:56.469Z,97366.41
2022-11-23T12:59:26.691Z,97355.38
2022-11-23T13:02:00.883Z,97353.00
2022-11-23T13:04:46.654Z,97348.72
2022-11-23T13:07:48.867Z,97356.19
2022-11-23T13:10:48.367Z,97351.09
2022-11-23T13:13:47.882Z,97347.16
2022-11-23T13:16:29.765Z,97352.00
2022-11-23T13:21:49.120Z,97341.69
2022-11-23T13:24:24.629Z,97342.91
2022-11-23T13:27:09.547Z,97345.88
2022-11-23T13:29:51.055Z,97336.00
2022-11-23T13:32:38.394Z,97341.69
2022-11-23T13:35:25.023Z,97339.69
2022-11-23T13:37:57.270Z,97333.06
2022-11-23T13:40:34.378Z,97341.34
2022-11-23T13:43:18.193Z,97333.94
2022-11-23T13:45:45.665Z,97338.69
2022-11-23T13:48:41.186Z,97332.41
2022-11-23T13:51:02.708Z,97331.38
2022-11-23T13:53:35.122Z,97327.53
2022-11-23T13:56:31.789Z,97323.94
2022-11-23T13:59:19.633Z,97307.03
2022-11-23T14:02:07.490Z,97306.06
2022-11-23T14:04:39.810Z,97300.59
2022-11-23T14:07:13.265Z,97306.31
2022-11-23T14:09:49.559Z,97303.28
2022-11-23T14:12:43.363Z,97298.66
2022-11-23T14:15:23.182Z,97300.84
2022-11-23T14:18:17.730Z,97293.63
2022-11-23T14:21:02.651Z,97291.75
2022-11-23T14:23:53.442Z,97285.94
2022-11-23T14:26:41.079Z,97285.00
2022-11-23T14:29:16.641Z,97276.97
2022-11-23T14:32:25.917Z,97279.13
2022-11-23T14:35:25.181Z,97280.63
2022-11-23T14:38:05.329Z,97284.00
2022-11-23T14:40:50.279Z,97278.00
2022-11-23T14:43:18.215Z,97280.91
2022-11-23T14:45:46.370Z,97273.81
2022-11-23T14:48:27.991Z,97272.50
2022-11-23T14:50:57.046Z,97274.41
2022-11-23T14:53:28.445Z,97272.22
2022-11-23T14:55:55.944Z,97266.03
2022-11-23T14:58:24.444Z,97267.81
2022-11-23T15:00:52.675Z,97274.94
2022-11-23T15:03:49.565Z,97268.69
2022-11-23T15:06:14.274Z,97273.31
2022-11-23T15:08:57.226Z,97264.53
2022-11-23T15:11:28.719Z,97260.97
2022-11-23T15:13:55.938Z,97257.13
2022-11-23T15:16:22.467Z,97245.72
2022-11-23T15:18:48.986Z,97255.19
2022-11-23T15:21:26.539Z,97257.47
2022-11-23T15:23:56.099Z,97257.31
2022-11-23T15:26:46.891Z,97251.25
2022-11-23T15:29:29.451Z,97259.03
2022-11-23T15:32:22.321Z,97250.78
2022-11-23T15:34:42.331Z,97249.66
2022-11-23T15:37:10.056Z,97247.50
2022-11-23T15:39:37.659Z,97249.78
2022-11-23T15:42:04.765Z,97260.34
2022-11-23T15:44:31.715Z,97257.78
2022-11-23T15:47:01.128Z,97257.47
2022-11-23T15:49:27.664Z,97254.28
2022-11-23T15:52:00.427Z,97241.41
2022-11-23T15:54:35.748Z,97248.63
2022-11-23T15:57:09.038Z,97241.09
2022-11-23T15:59:46.982Z,97248.28
2022-11-23T16:02:24.750Z,97250.34
2022-11-23T16:05:20.316Z,97262.22
2022-11-23T16:07:55.405Z,97261.66
2022-11-23T16:10:27.074Z,97264.53
2022-11-23T16:12:56.526Z,97265.34
2022-11-23T16:15:34.278Z,97259.25
2022-11-23T16:18:02.233Z,97263.13
2022-11-23T16:20:29.927Z,97269.84
2022-11-23T16:22:58.190Z,97280.66
2022-11-23T16:25:30.435Z,97282.91
2022-11-23T16:28:00.707Z,97284.75
2022-11-23T16:30:41.958Z,97301.22
2022-11-23T16:33:20.418Z,97308.59
2022-11-23T16:35:47.906Z,97312.28
2022-11-23T16:38:14.249Z,97313.06
2022-11-23T16:40:44.478Z,97309.00
2022-11-23T16:43:12.216Z,97323.66
2022-11-23T16:45:40.188Z,97328.16
2022-11-23T16:48:26.586Z,97324.72
2022-11-23T16:50:54.602Z,97333.88
2022-11-23T16:53:21.179Z,97336.75
2022-11-23T16:55:52.582Z,97338.38
2022-11-23T16:58:20.286Z,97343.25
2022-11-23T17:00:47.468Z,97354.50
2022-11-23T17:03:18.927Z,97364.47
2022-11-23T17:05:46.134Z,97368.75
2022-11-23T17:08:14.709Z,97384.06
2022-11-23T17:10:45.109Z,97388.16
2022-11-23T17:13:21.470Z,97398.34
2022-11-23T17:15:48.013Z,97396.69
2022-11-23T17:18:15.227Z,97401.59
2022-11-23T17:20:41.968Z,97400.16
2022-11-23T17:23:08.420Z,97413.66
2022-11-23T17:25:35.525Z,97419.38
2022-11-23T17:28:04.185Z,97434.66
2022-11-23T17:30:30.686Z,97433.44
2022-11-23T17:32:57.091Z,97452.81
2022-11-23T17:35:23.657Z,97458.34
2022-11-23T17:37:49.995Z,97451.59
2022-11-23T17:40:17.997Z,97462.22
2022-11-23T17:42:44.566Z,97466.72
2022-11-23T17:45:11.668Z,97464.88
2022-11-23T17:47:38.709Z,97483.03
2022-11-23T17:50:06.850Z,97478.53
2022-11-23T17:52:33.262Z,97481.56
2022-11-23T17:54:59.605Z,97504.56
2022-11-23T17:57:27.352Z,97504.56
2022-11-23T17:59:58.216Z,97512.91
2022-11-23T18:02:27.073Z,97513.56
2022-11-23T18:04:53.404Z,97519.66
2022-11-23T18:07:19.805Z,97522.94
2022-11-23T18:09:46.469Z,97529.47
2022-11-23T18:12:12.889Z,97521.16
2022-11-23T18:14:39.235Z,97523.22
2022-11-23T18:17:05.597Z,97524.22
2022-11-23T18:19:32.235Z,97524.63
2022-11-23T18:21:58.740Z,97527.50
2022-11-23T18:24:25.064Z,97539.72
2022-11-23T18:26:51.474Z,97546.44
2022-11-23T18:29:17.887Z,97545.81
2022-11-23T18:31:44.348Z,97549.47
2022-11-23T18:34:10.955Z,97559.41
2022-11-23T18:36:37.516Z,97566.91
2022-11-23T18:39:04.203Z,97573.19
2022-11-23T18:41:30.614Z,97582.38
2022-11-23T18:43:57.144Z,97581.91
2022-11-23T18:46:23.557Z,97587.63
2022-11-23T18:48:50.796Z,97591.03
2022-11-23T18:51:18.002Z,97587.78
2022-11-23T18:53:44.375Z,97589.84
2022-11-23T18:56:10.696Z,97596.97
2022-11-23T18:58:39.740Z,97596.38
2022-11-23T19:01:12.711Z,97596.63
2022-11-23T19:03:41.204Z,97597.81
2022-11-23T19:06:08.264Z,97595.81
2022-11-23T19:08:39.931Z,97603.91
2022-11-23T19:11:18.867Z,97618.97
2022-11-23T19:13:47.830Z,97618.66
2022-11-23T19:16:17.392Z,97616.00
2022-11-23T19:18:44.416Z,98034.47
2022-11-23T19:21:12.379Z,98035.28
2022-11-23T19:23:38.788Z,98034.75
2022-11-23T19:26:05.367Z,98028.91
2022-11-23T19:28:32.561Z,98027.44
2022-11-23T19:30:59.525Z,98026.97
2022-11-23T19:33:25.953Z,98033.38
2022-11-23T19:35:52.311Z,98019.84
2022-11-23T19:38:30.251Z,97969.78
2022-11-23T19:40:56.636Z,97972.25
2022-11-23T19:43:23.097Z,97975.75
2022-11-23T19:45:57.657Z,97976.94
2022-11-23T19:48:24.761Z,97979.22
2022-11-23T19:50:57.539Z,97922.56
2022-11-23T19:53:28.033Z,97917.25
2022-11-23T19:56:08.266Z,97925.84
2022-11-23T19:58:35.133Z,97926.59
2022-11-23T20:01:11.078Z,97927.41
2022-11-23T20:03:39.197Z,97941.69
2022-11-23T20:06:08.875Z,97952.28
2022-11-23T20:08:35.947Z,97950.06
2022-11-23T20:11:13.640Z,97962.13
2022-11-23T20:13:40.854Z,97963.75
2022-11-23T20:16:10.395Z,97969.06
2022-11-23T20:18:36.773Z,97984.38
2022-11-23T20:21:03.320Z,97981.00
2022-11-23T20:23:29.818Z,97985.75
2022-11-23T20:25:57.348Z,97991.22
2022-11-23T20:28:25.035Z,98002.28
2022-11-23T20:30:51.792Z,98009.03
2022-11-23T20:33:18.305Z,98023.75
2022-11-23T20:35:45.135Z,98029.69
2022-11-23T20:38:12.763Z,98044.19
2022-11-23T20:40:39.190Z,98062.38
2022-11-23T20:43:05.571Z,98076.72
2022-11-23T20:45:31.937Z,98078.81
2022-11-23T20:47:58.442Z,98102.13
2022-11-23T20:50:26.232Z,98103.97
2022-11-23T20:53:03.194Z,98112.75
2022-11-23T20:55:31.131Z,98135.59
2022-11-23T20:57:58.037Z,98136.22
2022-11-23T21:00:25.615Z,98153.59
2022-11-23T21:02:53.820Z,98154.88
2022-11-23T21:05:20.490Z,98161.81
2022-11-23T21:07:48.338Z,98172.06
2022-11-23T21:10:16.632Z,98173.72
2022-11-23T21:12:47.611Z,98186.97
2022-11-23T21:15:16.836Z,98189.63
2022-11-23T21:17:43.228Z,98194.09
2022-11-23T21:20:09.941Z,98196.41
2022-11-23T21:22:36.397Z,98188.56
2022-11-23T21:25:02.981Z,98199.53
2022-11-23T21:27:29.366Z,98204.47
2022-11-23T21:29:55.732Z,98203.16
2022-11-23T21:32:22.179Z,98213.41
2022-11-23T21:34:48.611Z,98217.44
2022-11-23T21:37:15.000Z,98208.03
2022-11-23T21:39:41.533Z,98212.66
2022-11-23T21:42:08.303Z,98206.91
2022-11-23T21:44:35.145Z,98206.06
2022-11-23T21:47:01.799Z,98191.34
2022-11-23T21:49:28.543Z,98195.84
2022-11-23T21:51:54.950Z,98196.66
2022-11-23T21:54:21.301Z,98197.50
2022-11-23T21:56:47.687Z,98199.31
2022-11-23T21:59:14.383Z,98219.91
2022-11-23T22:01:41.602Z,98218.88
2022-11-23T22:04:13.130Z,98239.28
2022-11-23T22:06:41.179Z,98241.94
2022-11-23T22:09:09.801Z,98249.53
2022-11-23T22:11:38.414Z,98248.34
2022-11-23T22:14:12.948Z,98261.25
2022-11-23T22:16:45.218Z,98266.22
2022-11-23T22:19:13.607Z,98271.50
2022-11-23T22:21:41.536Z,98267.41
2022-11-23T22:24:11.603Z,98275.16
2022-11-23T22:26:38.006Z,98283.94
2022-11-23T22:29:05.028Z,98291.72
2022-11-23T22:31:31.867Z,98299.47
2022-11-23T22:33:58.463Z,98319.53
2022-11-23T22:36:25.136Z,98339.38
2022-11-23T22:39:01.881Z,98359.97
2022-11-23T22:41:30.232Z,98367.38
2022-11-23T22:43:57.147Z,98375.06
2022-11-23T22:46:25.047Z,98380.72
2022-11-23T22:48:52.882Z,98383.53
2022-11-23T22:51:21.664Z,98388.03
2022-11-23T22:53:48.755Z,98380.06
2022-11-23T22:56:17.271Z,98387.91
2022-11-23T22:58:44.809Z,98376.16
2022-11-23T23:01:16.505Z,98378.91
2022-11-23T23:03:43.464Z,98385.91
2022-11-23T23:06:18.175Z,98395.22
2022-11-23T23:08:46.285Z,98393.59
2022-11-23T23:11:14.206Z,98377.38
2022-11-23T23:13:42.269Z,98371.97
2022-11-23T23:16:12.102Z,98374.03
2022-11-23T23:18:39.148Z,98372.22
2022-11-23T23:21:08.464Z,98369.44
2022-11-23T23:23:34.765Z,98375.34
2022-11-23T23:26:01.418Z,98369.03
2022-11-23T23:28:27.822Z,98375.53
2022-11-23T23:31:02.510Z,98369.66
2022-11-23T23:33:29.640Z,98370.47
2022-11-23T23:35:56.592Z,98379.28
2022-11-23T23:38:28.881Z,98376.34
2022-11-23T23:40:55.441Z,98368.44
2022-11-23T23:43:22.470Z,98369.13
2022-11-23T23:45:50.484Z,98356.84
2022-11-23T23:48:17.401Z,98353.06
2022-11-23T23:50:44.014Z,98357.88
2022-11-23T23:53:10.404Z,98350.28
2022-11-23T23:55:36.858Z,98353.25
2022-11-23T23:58:03.296Z,98345.59
